sensor_id;sensor_type;location;lat;lon;timestamp;temperature;humidity
13572;DHT22;6857;53.484;10.216;2024-03-23T00:55:24;7.70;99.90
13572;DHT22;6857;53.484;10.216;2024-03-23T00:57:50;7.70;99.90
13572;DHT22;6857;53.484;10.216;2024-03-23T01:00:15;7.70;99.90
13572;DHT22;6857;53.484;10.216;2024-03-23T01:02:41;7.60;99.90
13572;DHT22;6857;53.484;10.216;2024-03-23T01:05:06;7.60;99.90
13572;DHT22;6857;53.484;10.216;2024-03-23T01:07:32;7.60;99.90
13572;DHT22;6857;53.484;10.216;2024-03-23T01:09:57;7.70;99.90
13572;DHT22;6857;53.484;10.216;2024-03-23T01:12:23;7.60;99.90
13572;DHT22;6857;53.484;10.216;2024-03-23T01:14:48;7.70;99.90
13572;DHT22;6857;53.484;10.216;2024-03-23T01:17:14;7.70;99.90
13572;DHT22;6857;53.484;10.216;2024-03-23T01:19:40;7.70;99.90
13572;DHT22;6857;53.484;10.216;2024-03-23T01:22:07;7.70;99.90
13572;DHT22;6857;53.484;10.216;2024-03-23T01:24:32;7.70;99.90
13572;DHT22;6857;53.484;10.216;2024-03-23T01:26:58;7.60;99.90
13572;DHT22;6857;53.484;10.216;2024-03-23T01:29:23;7.60;99.90
13572;DHT22;6857;53.484;10.216;2024-03-23T01:31:49;7.70;99.90
13572;DHT22;6857;53.484;10.216;2024-03-23T01:34:14;7.60;99.90
13572;DHT22;6857;53.484;10.216;2024-03-23T01:36:40;7.60;99.90
13572;DHT22;6857;53.484;10.216;2024-03-23T01:39:05;7.60;99.90
13572;DHT22;6857;53.484;10.216;2024-03-23T01:41:35;7.60;99.90
13572;DHT22;6857;53.484;10.216;2024-03-23T01:44:05;7.50;99.90
13572;DHT22;6857;53.484;10.216;2024-03-23T01:46:31;7.50;99.90
13572;DHT22;6857;53.484;10.216;2024-03-23T01:48:57;7.50;99.90
13572;DHT22;6857;53.484;10.216;2024-03-23T01:51:23;7.50;99.90
13572;DHT22;6857;53.484;10.216;2024-03-23T01:53:49;7.50;99.90
13572;DHT22;6857;53.484;10.216;2024-03-23T01:56:14;7.50;99.90
13572;DHT22;6857;53.484;10.216;2024-03-23T01:58:40;7.50;99.90
13572;DHT22;6857;53.484;10.216;2024-03-23T02:01:06;7.50;99.90
13572;DHT22;6857;53.484;10.216;2024-03-23T02:03:31;7.50;99.90
13572;DHT22;6857;53.484;10.216;2024-03-23T02:05:57;7.50;99.90
13572;DHT22;6857;53.484;10.216;2024-03-23T02:08:23;7.40;99.90
13572;DHT22;6857;53.484;10.216;2024-03-23T02:10:50;7.40;99.90
13572;DHT22;6857;53.484;10.216;2024-03-23T02:13:17;7.30;99.90
13572;DHT22;6857;53.484;10.216;2024-03-23T02:15:42;7.30;99.90
13572;DHT22;6857;53.484;10.216;2024-03-23T02:18:08;7.40;99.90
13572;DHT22;6857;53.484;10.216;2024-03-23T02:20:35;7.30;99.90
13572;DHT22;6857;53.484;10.216;2024-03-23T02:23:00;7.30;99.90
13572;DHT22;6857;53.484;10.216;2024-03-23T02:25:26;7.30;99.90
13572;DHT22;6857;53.484;10.216;2024-03-23T02:27:52;7.30;99.90
13572;DHT22;6857;53.484;10.216;2024-03-23T02:30:19;7.30;99.90
13572;DHT22;6857;53.484;10.216;2024-03-23T02:32:45;7.20;99.90
13572;DHT22;6857;53.484;10.216;2024-03-23T02:35:11;7.20;99.90
13572;DHT22;6857;53.484;10.216;2024-03-23T02:37:36;7.20;99.90
13572;DHT22;6857;53.484;10.216;2024-03-23T02:40:02;7.20;99.90
13572;DHT22;6857;53.484;10.216;2024-03-23T02:42:27;7.20;99.90
13572;DHT22;6857;53.484;10.216;2024-03-23T02:44:54;7.10;99.90
13572;DHT22;6857;53.484;10.216;2024-03-23T02:47:19;7.10;99.90
13572;DHT22;6857;53.484;10.216;2024-03-23T02:49:45;7.10;99.90
13572;DHT22;6857;53.484;10.216;2024-03-23T02:52:10;7.10;99.90
13572;DHT22;6857;53.484;10.216;2024-03-23T02:54:36;7.10;99.90
13572;DHT22;6857;53.484;10.216;2024-03-23T02:57:02;7.10;99.90
13572;DHT22;6857;53.484;10.216;2024-03-23T02:59:27;7.00;99.90
13572;DHT22;6857;53.484;10.216;2024-03-23T03:01:53;7.00;99.90
13572;DHT22;6857;53.484;10.216;2024-03-23T03:04:18;7.00;99.90
13572;DHT22;6857;53.484;10.216;2024-03-23T03:06:47;6.90;99.90
13572;DHT22;6857;53.484;10.216;2024-03-23T03:09:13;6.80;99.90
13572;DHT22;6857;53.484;10.216;2024-03-23T03:11:38;6.80;99.90
13572;DHT22;6857;53.484;10.216;2024-03-23T03:14:04;6.90;99.90
13572;DHT22;6857;53.484;10.216;2024-03-23T03:16:32;6.80;99.90
13572;DHT22;6857;53.484;10.216;2024-03-23T03:18:58;6.80;99.90
13572;DHT22;6857;53.484;10.216;2024-03-23T03:21:23;6.70;99.90
13572;DHT22;6857;53.484;10.216;2024-03-23T03:23:49;6.70;99.90
13572;DHT22;6857;53.484;10.216;2024-03-23T03:26:18;6.70;99.90
13572;DHT22;6857;53.484;10.216;2024-03-23T03:28:44;6.60;99.90
13572;DHT22;6857;53.484;10.216;2024-03-23T03:31:14;6.60;99.90
13572;DHT22;6857;53.484;10.216;2024-03-23T03:33:40;6.50;99.90
13572;DHT22;6857;53.484;10.216;2024-03-23T03:36:05;6.40;99.90
13572;DHT22;6857;53.484;10.216;2024-03-23T03:38:31;6.40;99.90
13572;DHT22;6857;53.484;10.216;2024-03-23T03:40:56;6.40;99.90
13572;DHT22;6857;53.484;10.216;2024-03-23T03:43:24;6.30;99.90
13572;DHT22;6857;53.484;10.216;2024-03-23T03:45:58;6.30;99.90
13572;DHT22;6857;53.484;10.216;2024-03-23T03:48:24;6.30;99.90
13572;DHT22;6857;53.484;10.216;2024-03-23T03:50:52;6.20;99.90
13572;DHT22;6857;53.484;10.216;2024-03-23T03:53:17;6.20;99.90
13572;DHT22;6857;53.484;10.216;2024-03-23T03:55:43;6.20;99.90
13572;DHT22;6857;53.484;10.216;2024-03-23T03:58:09;6.20;99.90
13572;DHT22;6857;53.484;10.216;2024-03-23T04:00:34;6.20;99.90
13572;DHT22;6857;53.484;10.216;2024-03-23T04:03:01;6.20;99.90
13572;DHT22;6857;53.484;10.216;2024-03-23T04:05:26;6.20;99.90
13572;DHT22;6857;53.484;10.216;2024-03-23T04:07:52;6.20;99.90
13572;DHT22;6857;53.484;10.216;2024-03-23T04:10:17;6.10;99.90
13572;DHT22;6857;53.484;10.216;2024-03-23T04:12:43;6.10;99.90
13572;DHT22;6857;53.484;10.216;2024-03-23T04:15:09;6.10;99.90
13572;DHT22;6857;53.484;10.216;2024-03-23T04:17:35;6.20;99.90
13572;DHT22;6857;53.484;10.216;2024-03-23T04:20:02;6.10;99.90
13572;DHT22;6857;53.484;10.216;2024-03-23T04:22:29;6.10;99.90
13572;DHT22;6857;53.484;10.216;2024-03-23T04:24:55;6.10;99.90
13572;DHT22;6857;53.484;10.216;2024-03-23T04:27:21;6.10;99.90
13572;DHT22;6857;53.484;10.216;2024-03-23T04:29:48;6.20;99.90
13572;DHT22;6857;53.484;10.216;2024-03-23T04:32:14;6.10;99.90
13572;DHT22;6857;53.484;10.216;2024-03-23T04:34:40;6.10;99.90
13572;DHT22;6857;53.484;10.216;2024-03-23T04:37:05;6.10;99.90
13572;DHT22;6857;53.484;10.216;2024-03-23T04:39:31;6.10;99.90
13572;DHT22;6857;53.484;10.216;2024-03-23T04:41:56;6.10;99.90
13572;DHT22;6857;53.484;10.216;2024-03-23T04:44:22;6.00;99.90
13572;DHT22;6857;53.484;10.216;2024-03-23T04:46:47;6.00;99.90
13572;DHT22;6857;53.484;10.216;2024-03-23T04:49:13;6.00;99.90
13572;DHT22;6857;53.484;10.216;2024-03-23T04:51:38;6.00;99.90
13572;DHT22;6857;53.484;10.216;2024-03-23T04:54:05;5.90;99.90
13572;DHT22;6857;53.484;10.216;2024-03-23T04:56:31;6.00;99.90
13572;DHT22;6857;53.484;10.216;2024-03-23T04:58:57;6.00;99.90
13572;DHT22;6857;53.484;10.216;2024-03-23T05:01:27;6.10;99.90
13572;DHT22;6857;53.484;10.216;2024-03-23T05:03:52;6.10;99.90
13572;DHT22;6857;53.484;10.216;2024-03-23T05:06:18;6.10;99.90
13572;DHT22;6857;53.484;10.216;2024-03-23T05:08:45;6.10;99.90
13572;DHT22;6857;53.484;10.216;2024-03-23T05:11:11;6.20;99.90
13572;DHT22;6857;53.484;10.216;2024-03-23T05:13:37;6.20;99.90
13572;DHT22;6857;53.484;10.216;2024-03-23T05:16:02;6.10;99.90
13572;DHT22;6857;53.484;10.216;2024-03-23T05:18:28;6.10;99.90
13572;DHT22;6857;53.484;10.216;2024-03-23T05:20:58;6.00;99.90
13572;DHT22;6857;53.484;10.216;2024-03-23T05:23:24;6.00;99.90
13572;DHT22;6857;53.484;10.216;2024-03-23T05:25:50;6.00;99.90
13572;DHT22;6857;53.484;10.216;2024-03-23T05:28:17;6.00;99.90
13572;DHT22;6857;53.484;10.216;2024-03-23T05:30:43;6.00;99.90
13572;DHT22;6857;53.484;10.216;2024-03-23T05:33:08;6.00;99.90
13572;DHT22;6857;53.484;10.216;2024-03-23T05:35:34;5.90;99.90
13572;DHT22;6857;53.484;10.216;2024-03-23T05:37:59;5.90;99.90
13572;DHT22;6857;53.484;10.216;2024-03-23T05:40:28;5.90;99.90
13572;DHT22;6857;53.484;10.216;2024-03-23T05:42:54;6.00;99.90
13572;DHT22;6857;53.484;10.216;2024-03-23T05:45:24;5.90;99.90
13572;DHT22;6857;53.484;10.216;2024-03-23T05:47:58;5.90;99.90
13572;DHT22;6857;53.484;10.216;2024-03-23T05:53:29;5.90;99.90
13572;DHT22;6857;53.484;10.216;2024-03-23T05:56:03;5.90;99.90
13572;DHT22;6857;53.484;10.216;2024-03-23T05:58:32;5.90;99.90
13572;DHT22;6857;53.484;10.216;2024-03-23T06:00:59;5.90;99.90
13572;DHT22;6857;53.484;10.216;2024-03-23T06:03:26;5.90;99.90
13572;DHT22;6857;53.484;10.216;2024-03-23T06:05:52;5.90;99.90
13572;DHT22;6857;53.484;10.216;2024-03-23T06:08:18;5.90;99.90
13572;DHT22;6857;53.484;10.216;2024-03-23T06:10:47;5.90;99.90
13572;DHT22;6857;53.484;10.216;2024-03-23T06:13:13;5.90;99.90
13572;DHT22;6857;53.484;10.216;2024-03-23T06:15:42;5.90;99.90
13572;DHT22;6857;53.484;10.216;2024-03-23T06:18:08;5.90;99.90
13572;DHT22;6857;53.484;10.216;2024-03-23T06:20:34;5.90;99.90
13572;DHT22;6857;53.484;10.216;2024-03-23T06:23:03;5.90;99.90
13572;DHT22;6857;53.484;10.216;2024-03-23T06:25:32;6.00;99.90
13572;DHT22;6857;53.484;10.216;2024-03-23T06:28:01;6.00;99.90
13572;DHT22;6857;53.484;10.216;2024-03-23T06:30:30;6.00;99.90
13572;DHT22;6857;53.484;10.216;2024-03-23T06:32:57;6.00;99.90
13572;DHT22;6857;53.484;10.216;2024-03-23T06:35:25;6.00;99.90
13572;DHT22;6857;53.484;10.216;2024-03-23T06:37:54;6.00;99.90
13572;DHT22;6857;53.484;10.216;2024-03-23T06:40:20;6.10;99.90
13572;DHT22;6857;53.484;10.216;2024-03-23T06:42:46;6.20;99.90
13572;DHT22;6857;53.484;10.216;2024-03-23T06:45:12;6.40;99.90
13572;DHT22;6857;53.484;10.216;2024-03-23T06:47:39;6.50;99.90
13572;DHT22;6857;53.484;10.216;2024-03-23T06:50:06;6.50;99.90
13572;DHT22;6857;53.484;10.216;2024-03-23T06:52:32;6.70;99.90
13572;DHT22;6857;53.484;10.216;2024-03-23T06:55:01;6.90;99.90
13572;DHT22;6857;53.484;10.216;2024-03-23T06:57:26;6.90;99.90
13572;DHT22;6857;53.484;10.216;2024-03-23T06:59:52;6.90;99.90
13572;DHT22;6857;53.484;10.216;2024-03-23T07:02:17;7.00;99.90
13572;DHT22;6857;53.484;10.216;2024-03-23T07:04:43;7.00;99.90
13572;DHT22;6857;53.484;10.216;2024-03-23T07:07:12;7.10;99.90
13572;DHT22;6857;53.484;10.216;2024-03-23T07:09:38;7.10;99.90
13572;DHT22;6857;53.484;10.216;2024-03-23T07:12:04;7.20;99.90
13572;DHT22;6857;53.484;10.216;2024-03-23T07:14:30;7.20;99.90
13572;DHT22;6857;53.484;10.216;2024-03-23T07:17:04;7.20;99.90
13572;DHT22;6857;53.484;10.216;2024-03-23T07:19:36;7.30;99.90
13572;DHT22;6857;53.484;10.216;2024-03-23T07:22:01;7.40;99.90
13572;DHT22;6857;53.484;10.216;2024-03-23T07:24:27;7.60;99.90
13572;DHT22;6857;53.484;10.216;2024-03-23T07:26:52;7.90;99.90
13572;DHT22;6857;53.484;10.216;2024-03-23T07:29:19;8.00;99.90
13572;DHT22;6857;53.484;10.216;2024-03-23T07:31:45;8.00;99.90
13572;DHT22;6857;53.484;10.216;2024-03-23T07:34:10;8.00;99.90
13572;DHT22;6857;53.484;10.216;2024-03-23T07:36:36;8.00;99.90
13572;DHT22;6857;53.484;10.216;2024-03-23T07:39:01;8.00;99.90
13572;DHT22;6857;53.484;10.216;2024-03-23T07:41:27;8.10;99.90
13572;DHT22;6857;53.484;10.216;2024-03-23T07:43:53;8.00;99.90
13572;DHT22;6857;53.484;10.216;2024-03-23T07:46:21;8.00;99.90
13572;DHT22;6857;53.484;10.216;2024-03-23T07:48:46;7.90;99.90
13572;DHT22;6857;53.484;10.216;2024-03-23T07:51:18;7.90;99.90
13572;DHT22;6857;53.484;10.216;2024-03-23T07:53:44;7.90;99.90
13572;DHT22;6857;53.484;10.216;2024-03-23T07:56:14;7.90;99.90
13572;DHT22;6857;53.484;10.216;2024-03-23T07:58:41;8.00;99.90
13572;DHT22;6857;53.484;10.216;2024-03-23T08:01:08;8.10;99.90
13572;DHT22;6857;53.484;10.216;2024-03-23T08:03:37;8.30;99.90
13572;DHT22;6857;53.484;10.216;2024-03-23T08:06:14;8.50;99.90
13572;DHT22;6857;53.484;10.216;2024-03-23T08:08:41;8.50;99.90
13572;DHT22;6857;53.484;10.216;2024-03-23T08:11:07;8.60;99.90
13572;DHT22;6857;53.484;10.216;2024-03-23T08:13:38;8.80;99.90
13572;DHT22;6857;53.484;10.216;2024-03-23T08:16:04;8.90;99.90
13572;DHT22;6857;53.484;10.216;2024-03-23T08:18:30;8.90;99.90
13572;DHT22;6857;53.484;10.216;2024-03-23T08:21:00;8.90;99.90
13572;DHT22;6857;53.484;10.216;2024-03-23T08:23:27;9.00;99.90
13572;DHT22;6857;53.484;10.216;2024-03-23T08:26:04;9.00;99.90
13572;DHT22;6857;53.484;10.216;2024-03-23T08:28:30;9.00;99.90
13572;DHT22;6857;53.484;10.216;2024-03-23T08:30:56;9.10;99.90
13572;DHT22;6857;53.484;10.216;2024-03-23T08:33:22;9.10;99.90
13572;DHT22;6857;53.484;10.216;2024-03-23T08:35:58;9.10;99.90
13572;DHT22;6857;53.484;10.216;2024-03-23T08:38:25;9.00;99.90
13572;DHT22;6857;53.484;10.216;2024-03-23T08:41:04;9.00;99.90
13572;DHT22;6857;53.484;10.216;2024-03-23T08:43:35;9.00;99.90
13572;DHT22;6857;53.484;10.216;2024-03-23T08:46:11;9.00;99.90
13572;DHT22;6857;53.484;10.216;2024-03-23T08:48:38;9.10;99.90
13572;DHT22;6857;53.484;10.216;2024-03-23T08:51:08;9.20;99.90
13572;DHT22;6857;53.484;10.216;2024-03-23T08:53:37;9.30;99.90
13572;DHT22;6857;53.484;10.216;2024-03-23T08:56:04;9.40;99.90
13572;DHT22;6857;53.484;10.216;2024-03-23T08:58:30;9.30;99.90
13572;DHT22;6857;53.484;10.216;2024-03-23T09:01:02;9.40;99.90
13572;DHT22;6857;53.484;10.216;2024-03-23T09:03:28;9.20;99.90
13572;DHT22;6857;53.484;10.216;2024-03-23T09:05:54;9.20;99.90
13572;DHT22;6857;53.484;10.216;2024-03-23T09:08:20;9.30;99.90
13572;DHT22;6857;53.484;10.216;2024-03-23T09:10:47;9.20;99.90
13572;DHT22;6857;53.484;10.216;2024-03-23T09:13:13;9.30;99.90
13572;DHT22;6857;53.484;10.216;2024-03-23T09:15:47;9.40;99.90
13572;DHT22;6857;53.484;10.216;2024-03-23T09:18:12;9.50;99.90
13572;DHT22;6857;53.484;10.216;2024-03-23T09:20:38;9.50;99.90
13572;DHT22;6857;53.484;10.216;2024-03-23T09:23:04;9.60;99.90
13572;DHT22;6857;53.484;10.216;2024-03-23T09:25:30;9.60;99.90
13572;DHT22;6857;53.484;10.216;2024-03-23T09:27:55;9.50;99.90
13572;DHT22;6857;53.484;10.216;2024-03-23T09:30:21;9.40;99.90
13572;DHT22;6857;53.484;10.216;2024-03-23T09:32:46;9.30;99.90
13572;DHT22;6857;53.484;10.216;2024-03-23T09:35:12;9.20;99.90
13572;DHT22;6857;53.484;10.216;2024-03-23T09:37:38;9.20;99.90
13572;DHT22;6857;53.484;10.216;2024-03-23T09:40:10;9.10;99.90
13572;DHT22;6857;53.484;10.216;2024-03-23T09:42:36;9.30;99.90
13572;DHT22;6857;53.484;10.216;2024-03-23T09:45:06;9.50;99.90
13572;DHT22;6857;53.484;10.216;2024-03-23T09:47:34;9.70;99.90
13572;DHT22;6857;53.484;10.216;2024-03-23T09:50:01;9.80;99.90
13572;DHT22;6857;53.484;10.216;2024-03-23T09:52:26;9.80;99.90
13572;DHT22;6857;53.484;10.216;2024-03-23T09:54:52;9.80;99.90
13572;DHT22;6857;53.484;10.216;2024-03-23T09:57:18;9.80;99.90
13572;DHT22;6857;53.484;10.216;2024-03-23T09:59:43;9.80;99.90
13572;DHT22;6857;53.484;10.216;2024-03-23T10:02:09;9.90;99.90
13572;DHT22;6857;53.484;10.216;2024-03-23T10:04:40;10.10;99.90
13572;DHT22;6857;53.484;10.216;2024-03-23T10:07:11;10.20;99.90
13572;DHT22;6857;53.484;10.216;2024-03-23T10:09:38;10.20;99.90
13572;DHT22;6857;53.484;10.216;2024-03-23T10:12:10;10.20;99.90
13572;DHT22;6857;53.484;10.216;2024-03-23T10:14:36;10.30;99.90
13572;DHT22;6857;53.484;10.216;2024-03-23T10:17:22;10.30;99.90
13572;DHT22;6857;53.484;10.216;2024-03-23T10:19:52;10.30;99.90
13572;DHT22;6857;53.484;10.216;2024-03-23T10:22:22;10.30;99.90
13572;DHT22;6857;53.484;10.216;2024-03-23T10:24:48;10.20;99.90
13572;DHT22;6857;53.484;10.216;2024-03-23T10:27:18;10.10;99.90
13572;DHT22;6857;53.484;10.216;2024-03-23T10:29:45;10.10;99.90
13572;DHT22;6857;53.484;10.216;2024-03-23T10:32:12;10.10;99.90
13572;DHT22;6857;53.484;10.216;2024-03-23T10:34:39;10.20;99.90
13572;DHT22;6857;53.484;10.216;2024-03-23T10:37:05;10.30;99.90
13572;DHT22;6857;53.484;10.216;2024-03-23T10:39:39;10.30;99.90
13572;DHT22;6857;53.484;10.216;2024-03-23T10:42:08;10.40;99.90
13572;DHT22;6857;53.484;10.216;2024-03-23T10:44:36;10.50;99.90
13572;DHT22;6857;53.484;10.216;2024-03-23T10:47:02;10.70;99.90
13572;DHT22;6857;53.484;10.216;2024-03-23T10:49:35;10.80;99.90
13572;DHT22;6857;53.484;10.216;2024-03-23T10:52:02;10.90;99.90
13572;DHT22;6857;53.484;10.216;2024-03-23T10:54:30;11.00;99.90
13572;DHT22;6857;53.484;10.216;2024-03-23T10:57:13;11.10;99.90
13572;DHT22;6857;53.484;10.216;2024-03-23T10:59:40;11.10;99.90
13572;DHT22;6857;53.484;10.216;2024-03-23T11:02:06;11.10;99.90
13572;DHT22;6857;53.484;10.216;2024-03-23T11:04:37;10.90;99.90
13572;DHT22;6857;53.484;10.216;2024-03-23T11:09:53;10.90;99.90
13572;DHT22;6857;53.484;10.216;2024-03-23T11:15:05;11.00;99.90
13572;DHT22;6857;53.484;10.216;2024-03-23T11:17:33;10.90;99.90
13572;DHT22;6857;53.484;10.216;2024-03-23T11:22:44;10.50;99.90
13572;DHT22;6857;53.484;10.216;2024-03-23T11:25:15;9.80;99.90
13572;DHT22;6857;53.484;10.216;2024-03-23T11:27:41;9.30;99.90
13572;DHT22;6857;53.484;10.216;2024-03-23T11:32:43;8.90;99.90
13572;DHT22;6857;53.484;10.216;2024-03-23T11:35:09;9.00;99.90
13572;DHT22;6857;53.484;10.216;2024-03-23T11:37:36;9.20;99.90
13572;DHT22;6857;53.484;10.216;2024-03-23T11:40:17;9.40;99.90
13572;DHT22;6857;53.484;10.216;2024-03-23T11:42:43;9.70;99.90
13572;DHT22;6857;53.484;10.216;2024-03-23T11:45:09;9.90;99.90
13572;DHT22;6857;53.484;10.216;2024-03-23T11:47:35;10.20;99.90
13572;DHT22;6857;53.484;10.216;2024-03-23T11:50:00;10.40;99.90
13572;DHT22;6857;53.484;10.216;2024-03-23T11:52:26;10.50;99.90
13572;DHT22;6857;53.484;10.216;2024-03-23T11:54:51;10.60;99.90
13572;DHT22;6857;53.484;10.216;2024-03-23T11:57:17;10.60;99.90
13572;DHT22;6857;53.484;10.216;2024-03-23T11:59:42;10.60;99.90
13572;DHT22;6857;53.484;10.216;2024-03-23T12:02:11;10.50;99.90
13572;DHT22;6857;53.484;10.216;2024-03-23T12:04:38;10.00;99.90
13572;DHT22;6857;53.484;10.216;2024-03-23T12:07:17;9.30;99.90
13572;DHT22;6857;53.484;10.216;2024-03-23T12:10:02;8.60;99.90
13572;DHT22;6857;53.484;10.216;2024-03-23T12:12:32;8.10;99.90
13572;DHT22;6857;53.484;10.216;2024-03-23T12:15:07;7.80;99.90
13572;DHT22;6857;53.484;10.216;2024-03-23T12:17:34;7.70;99.90
13572;DHT22;6857;53.484;10.216;2024-03-23T12:20:03;7.80;99.90
13572;DHT22;6857;53.484;10.216;2024-03-23T12:22:29;8.00;99.90
13572;DHT22;6857;53.484;10.216;2024-03-23T12:24:55;8.20;99.90
13572;DHT22;6857;53.484;10.216;2024-03-23T12:27:21;9.00;99.90
13572;DHT22;6857;53.484;10.216;2024-03-23T12:29:46;9.80;99.90
13572;DHT22;6857;53.484;10.216;2024-03-23T12:32:13;11.00;99.90
13572;DHT22;6857;53.484;10.216;2024-03-23T12:34:39;11.10;99.90
13572;DHT22;6857;53.484;10.216;2024-03-23T12:37:05;10.30;99.90
13572;DHT22;6857;53.484;10.216;2024-03-23T12:39:38;10.00;99.90
13572;DHT22;6857;53.484;10.216;2024-03-23T12:42:03;10.20;99.90
13572;DHT22;6857;53.484;10.216;2024-03-23T12:44:29;10.90;99.90
13572;DHT22;6857;53.484;10.216;2024-03-23T12:46:55;11.50;99.90
13572;DHT22;6857;53.484;10.216;2024-03-23T12:49:20;11.90;99.90
13572;DHT22;6857;53.484;10.216;2024-03-23T12:51:54;12.00;99.90
13572;DHT22;6857;53.484;10.216;2024-03-23T12:54:23;11.60;99.90
13572;DHT22;6857;53.484;10.216;2024-03-23T12:56:49;10.90;99.90
13572;DHT22;6857;53.484;10.216;2024-03-23T12:59:15;10.20;99.90
13572;DHT22;6857;53.484;10.216;2024-03-23T13:01:42;9.90;99.90
13572;DHT22;6857;53.484;10.216;2024-03-23T13:04:08;9.40;99.90
13572;DHT22;6857;53.484;10.216;2024-03-23T13:06:34;8.50;99.90
13572;DHT22;6857;53.484;10.216;2024-03-23T13:09:03;7.80;99.90
13572;DHT22;6857;53.484;10.216;2024-03-23T13:11:29;7.30;99.90
13572;DHT22;6857;53.484;10.216;2024-03-23T13:13:55;6.90;99.90
13572;DHT22;6857;53.484;10.216;2024-03-23T13:16:20;6.70;99.90
13572;DHT22;6857;53.484;10.216;2024-03-23T13:18:46;6.50;99.90
13572;DHT22;6857;53.484;10.216;2024-03-23T13:21:11;6.30;99.90
13572;DHT22;6857;53.484;10.216;2024-03-23T13:23:37;5.90;99.90
13572;DHT22;6857;53.484;10.216;2024-03-23T13:26:05;5.90;99.90
13572;DHT22;6857;53.484;10.216;2024-03-23T13:28:30;6.60;99.90
13572;DHT22;6857;53.484;10.216;2024-03-23T13:30:56;7.20;99.90
13572;DHT22;6857;53.484;10.216;2024-03-23T13:33:29;7.50;99.90
13572;DHT22;6857;53.484;10.216;2024-03-23T13:35:55;7.80;99.90
13572;DHT22;6857;53.484;10.216;2024-03-23T13:38:22;7.70;99.90
13572;DHT22;6857;53.484;10.216;2024-03-23T13:40:54;7.60;99.90
13572;DHT22;6857;53.484;10.216;2024-03-23T13:43:20;7.50;99.90
13572;DHT22;6857;53.484;10.216;2024-03-23T13:45:53;7.40;99.90
13572;DHT22;6857;53.484;10.216;2024-03-23T13:48:26;7.40;99.90
13572;DHT22;6857;53.484;10.216;2024-03-23T13:51:04;7.20;99.90
13572;DHT22;6857;53.484;10.216;2024-03-23T13:53:30;7.00;99.90
13572;DHT22;6857;53.484;10.216;2024-03-23T13:55:56;6.80;99.90
13572;DHT22;6857;53.484;10.216;2024-03-23T13:58:22;6.90;99.90
13572;DHT22;6857;53.484;10.216;2024-03-23T14:00:49;7.20;99.90
13572;DHT22;6857;53.484;10.216;2024-03-23T14:03:14;7.40;99.90
13572;DHT22;6857;53.484;10.216;2024-03-23T14:05:40;7.40;99.90
13572;DHT22;6857;53.484;10.216;2024-03-23T14:08:07;7.50;99.90
13572;DHT22;6857;53.484;10.216;2024-03-23T14:10:33;7.60;99.90
13572;DHT22;6857;53.484;10.216;2024-03-23T14:12:59;7.60;99.90
13572;DHT22;6857;53.484;10.216;2024-03-23T14:15:28;7.70;99.90
13572;DHT22;6857;53.484;10.216;2024-03-23T14:17:55;7.80;99.90
13572;DHT22;6857;53.484;10.216;2024-03-23T14:20:21;8.00;99.90
13572;DHT22;6857;53.484;10.216;2024-03-23T14:22:50;8.40;99.90
13572;DHT22;6857;53.484;10.216;2024-03-23T14:25:16;8.80;99.90
13572;DHT22;6857;53.484;10.216;2024-03-23T14:27:44;9.10;99.90
13572;DHT22;6857;53.484;10.216;2024-03-23T14:30:10;9.50;99.90
13572;DHT22;6857;53.484;10.216;2024-03-23T14:32:36;9.90;99.90
13572;DHT22;6857;53.484;10.216;2024-03-23T14:35:06;10.10;99.90
13572;DHT22;6857;53.484;10.216;2024-03-23T14:37:37;10.10;99.90
13572;DHT22;6857;53.484;10.216;2024-03-23T14:40:03;10.10;99.90
13572;DHT22;6857;53.484;10.216;2024-03-23T14:42:29;10.20;99.90
13572;DHT22;6857;53.484;10.216;2024-03-23T14:44:56;10.00;99.90
13572;DHT22;6857;53.484;10.216;2024-03-23T14:47:22;10.20;99.90
13572;DHT22;6857;53.484;10.216;2024-03-23T14:49:47;10.70;99.90
13572;DHT22;6857;53.484;10.216;2024-03-23T14:52:18;11.00;99.90
13572;DHT22;6857;53.484;10.216;2024-03-23T14:54:44;10.80;99.90
13572;DHT22;6857;53.484;10.216;2024-03-23T14:57:10;10.70;99.90
13572;DHT22;6857;53.484;10.216;2024-03-23T14:59:36;11.00;99.90
13572;DHT22;6857;53.484;10.216;2024-03-23T15:02:04;11.20;99.90
13572;DHT22;6857;53.484;10.216;2024-03-23T15:04:29;11.50;99.90
13572;DHT22;6857;53.484;10.216;2024-03-23T15:06:55;11.50;99.90
13572;DHT22;6857;53.484;10.216;2024-03-23T15:09:20;11.60;99.90
13572;DHT22;6857;53.484;10.216;2024-03-23T15:11:46;11.20;99.90
13572;DHT22;6857;53.484;10.216;2024-03-23T15:14:11;10.80;99.90
13572;DHT22;6857;53.484;10.216;2024-03-23T15:16:37;10.40;99.90
13572;DHT22;6857;53.484;10.216;2024-03-23T15:19:02;10.30;99.90
13572;DHT22;6857;53.484;10.216;2024-03-23T15:21:30;10.20;99.90
13572;DHT22;6857;53.484;10.216;2024-03-23T15:23:56;10.00;99.90
13572;DHT22;6857;53.484;10.216;2024-03-23T15:26:23;9.70;99.90
13572;DHT22;6857;53.484;10.216;2024-03-23T15:28:48;9.30;99.90
13572;DHT22;6857;53.484;10.216;2024-03-23T15:31:23;9.20;99.90
13572;DHT22;6857;53.484;10.216;2024-03-23T15:33:49;9.10;99.90
13572;DHT22;6857;53.484;10.216;2024-03-23T15:36:15;8.90;99.90
13572;DHT22;6857;53.484;10.216;2024-03-23T15:38:40;8.70;99.90
13572;DHT22;6857;53.484;10.216;2024-03-23T15:41:06;8.10;99.90
13572;DHT22;6857;53.484;10.216;2024-03-23T15:43:33;7.50;99.90
13572;DHT22;6857;53.484;10.216;2024-03-23T15:46:00;7.10;99.90
13572;DHT22;6857;53.484;10.216;2024-03-23T15:48:30;7.30;99.90
13572;DHT22;6857;53.484;10.216;2024-03-23T15:50:58;7.70;99.90
13572;DHT22;6857;53.484;10.216;2024-03-23T15:53:25;8.00;99.90
13572;DHT22;6857;53.484;10.216;2024-03-23T15:55:54;8.30;99.90
13572;DHT22;6857;53.484;10.216;2024-03-23T15:58:24;8.40;99.90
13572;DHT22;6857;53.484;10.216;2024-03-23T16:01:06;8.10;99.90
13572;DHT22;6857;53.484;10.216;2024-03-23T16:03:32;8.20;99.90
13572;DHT22;6857;53.484;10.216;2024-03-23T16:06:00;8.20;99.90
13572;DHT22;6857;53.484;10.216;2024-03-23T16:08:26;8.00;99.90
13572;DHT22;6857;53.484;10.216;2024-03-23T16:10:53;7.90;99.90
13572;DHT22;6857;53.484;10.216;2024-03-23T16:13:19;7.70;99.90
13572;DHT22;6857;53.484;10.216;2024-03-23T16:15:54;7.50;99.90
13572;DHT22;6857;53.484;10.216;2024-03-23T16:18:20;7.40;99.90
13572;DHT22;6857;53.484;10.216;2024-03-23T16:21:02;7.40;99.90
13572;DHT22;6857;53.484;10.216;2024-03-23T16:23:28;7.30;99.90
13572;DHT22;6857;53.484;10.216;2024-03-23T16:25:55;7.40;99.90
13572;DHT22;6857;53.484;10.216;2024-03-23T16:28:28;7.30;99.90
13572;DHT22;6857;53.484;10.216;2024-03-23T16:31:00;7.30;99.90
13572;DHT22;6857;53.484;10.216;2024-03-23T16:33:26;7.40;99.90
13572;DHT22;6857;53.484;10.216;2024-03-23T16:38:30;7.10;99.90
13572;DHT22;6857;53.484;10.216;2024-03-23T16:40:59;7.40;99.90
13572;DHT22;6857;53.484;10.216;2024-03-23T16:43:27;6.80;99.90
13572;DHT22;6857;53.484;10.216;2024-03-23T16:45:58;6.70;99.90
13572;DHT22;6857;53.484;10.216;2024-03-23T16:48:24;6.60;99.90
13572;DHT22;6857;53.484;10.216;2024-03-23T16:50:50;6.60;99.90
13572;DHT22;6857;53.484;10.216;2024-03-23T16:53:16;6.60;99.90